Flight Track Log - Related Links

Times and Time Zones

All times are in EST time to prevent confusion due to time zone crossing. See the AAY855 flight status page for this flight to view local times or setup timezone preferences in your user account.

Time Position Orientation Groundspeed Altitude Reporting Facility
EST Latitude Longitude Course Direction KTS MPH feet Rate Location/Type
Mon 06:29:27 PM 41.6953 -86.3642 183° South 170 196 2,700  Level Chicago Center
Mon 06:30:29 PM 41.6392 -86.3678 183° South 224 258 5,200 2,806 Climbing Chicago Center
Mon 06:31:31 PM 41.5700 -86.3281 157° South 269 310 8,500 2,371 Climbing Chicago Center
Mon 06:32:33 PM 41.4917 -86.2958 163° South 297 342 10,100 1,268 Climbing Chicago Center
Mon 06:33:34 PM 41.3994 -86.2753 171° South 334 384 11,100 1,951 Climbing Chicago Center
Mon 06:34:36 PM 41.2692 -86.2486 171° South 393 452 14,100 2,177 Climbing Chicago Center
Mon 06:35:38 PM 41.1578 -86.2247 171° South 405 466 15,600 1,742 Climbing Chicago Center
Mon 06:36:40 PM 41.0408 -86.1972 170° South 424 488 17,700 1,887 Climbing Chicago Center
Mon 06:37:42 PM 40.9208 -86.1706 170° South 436 502 19,500 2,274 Climbing Chicago Center
Mon 06:38:44 PM 40.8000 -86.1428 170° South 442 509 22,400 2,468 Climbing Chicago Center
Mon 06:39:46 PM 40.6747 -86.1161 171° South 423 487 24,600 1,403 Climbing Chicago Center
Mon 06:40:48 PM 40.5553 -86.0914 171° South 434 499 25,300 871 Climbing Chicago Center
Mon 06:41:50 PM 40.4281 -86.0647 171° South 459 528 26,400 1,452 Climbing Chicago Center
Mon 06:42:52 PM 40.2725 -86.0294 170° South 468 539 28,300 1,548 Climbing Chicago Center
Mon 06:43:54 PM 40.1439 -86.0017 171° South 467 537 29,600 1,297 Climbing Chicago Center
Mon 06:44:43 PM 40.0406 -85.9789 170° South 467 537 30,700 1,081 Climbing Indianapolis Center
Mon 06:45:45 PM 39.9128 -85.9519 171° South 466 536 31,600 829 Climbing Indianapolis Center
Mon 06:46:46 PM 39.7844 -85.9256 171° South 465 535 32,400 683 Climbing Indianapolis Center
Mon 06:47:48 PM 39.6556 -85.8981 171° South 465 535 33,000 290 Climbing Indianapolis Center
Mon 06:48:50 PM 39.5281 -85.8708 171° South 464 534 33,000  Level Indianapolis Center
Mon 06:49:51 PM 39.3986 -85.8439 171° South 464 534 33,000  Level Indianapolis Center
Mon 06:50:53 PM 39.2703 -85.8189 171° South 465 535 33,000  Level Indianapolis Center
Mon 06:51:55 PM 39.1433 -85.7911 170° South 464 534 33,000  Level Indianapolis Center
Mon 06:52:57 PM 38.9908 -85.7578 170° South 464 534 33,000  Level Indianapolis Center
Mon 06:53:58 PM 38.8642 -85.7319 171° South 464 534 33,000  Level Indianapolis Center
Mon 06:55:00 PM 38.7372 -85.7083 172° South 464 534 33,000  Level Indianapolis Center
Mon 06:56:02 PM 38.6011 -85.6803 171° South 464 534 33,000  Level Indianapolis Center
Mon 06:57:04 PM 38.4761 -85.6522 170° South 458 527 33,000  Level Indianapolis Center
Mon 06:58:05 PM 38.3489 -85.6258 171° South 458 527 33,000  Level Indianapolis Center
Mon 06:59:07 PM 38.2217 -85.6000 171° South 458 527 33,000  Level Indianapolis Center
Mon 07:00:08 PM 38.0967 -85.5767 172° South 456 525 33,000  Level Indianapolis Center
Mon 07:01:10 PM 37.9703 -85.5431 168° South 456 525 33,000  Level Indianapolis Center
Mon 07:02:11 PM 37.8272 -85.5019 167° South 457 526 33,000  Level Indianapolis Center
Mon 07:03:13 PM 37.6997 -85.4678 168° South 463 533 33,000  Level Indianapolis Center
Mon 07:04:15 PM 37.5731 -85.4331 168° South 463 533 33,000  Level Indianapolis Center
Mon 07:05:16 PM 37.4481 -85.4011 169° South 462 532 33,000  Level Indianapolis Center
Mon 07:06:18 PM 37.3181 -85.3692 169° South 468 539 33,000  Level Indianapolis Center
Mon 07:07:19 PM 37.1914 -85.3325 167° South 468 539 33,000  Level Indianapolis Center
Mon 07:08:21 PM 37.0653 -85.2972 167° South 468 539 33,000  Level Indianapolis Center
Mon 07:09:23 PM 36.9258 -85.2628 169° South 473 544 33,000  Level Indianapolis Center
Mon 07:10:24 PM 36.7961 -85.2294 168° South 473 544 33,000  Level Indianapolis Center
Mon 07:11:26 PM 36.6653 -85.1981 169° South 474 545 33,000  Level Indianapolis Center
Mon 07:12:28 PM 36.5106 -85.1558 168° South 474 545 33,000  Level Indianapolis Center
Mon 07:13:29 PM 36.3836 -85.1219 168° South 473 544 33,000  Level Indianapolis Center
Mon 07:14:31 PM 36.2561 -85.0886 168° South 471 542 33,000  Level Indianapolis Center
Mon 07:15:33 PM 36.1294 -85.0561 168° South 469 540 33,000  Level Indianapolis Center
Mon 07:16:34 PM 36.0031 -85.0256 169° South 467 537 33,000  Level Indianapolis Center
Mon 07:17:36 PM 35.8725 -84.9906 168° South 467 537 33,000  Level Indianapolis Center
Mon 07:18:10 PM 35.8022 -84.9733 169° South 467 537 33,000  Level Atlanta Center
Mon 07:19:10 PM 35.6733 -84.9411 169° South 472 543 33,000  Level Atlanta Center
Mon 07:20:10 PM 35.5461 -84.9092 168° South 467 537 33,000  Level Atlanta Center
Mon 07:21:10 PM 35.4172 -84.8772 169° South 467 537 33,000  Level Atlanta Center
Mon 07:22:10 PM 35.2922 -84.8453 168° South 467 537 33,000  Level Atlanta Center
Mon 07:23:10 PM 35.1631 -84.8136 169° South 467 537 33,000  Level Atlanta Center
Mon 07:24:10 PM 35.0358 -84.7819 168° South 467 537 33,000  Level Atlanta Center
Mon 07:25:10 PM 34.9086 -84.7531 169° South 467 537 33,000  Level Atlanta Center
Mon 07:26:10 PM 34.7836 -84.7192 167° South 467 537 33,000  Level Atlanta Center
Mon 07:27:10 PM 34.6586 -84.6878 168° South 467 537 33,000  Level Atlanta Center
Mon 07:28:10 PM 34.5358 -84.6514 166° South 458 527 33,000  Level Atlanta Center
Mon 07:29:10 PM 34.4128 -84.6256 170° South 458 527 33,000  Level Atlanta Center
Mon 07:30:10 PM 34.2856 -84.5944 169° South 463 533 33,000  Level Atlanta Center
Mon 07:31:10 PM 34.1583 -84.5636 169° South 469 540 33,000  Level Atlanta Center
Mon 07:32:10 PM 34.0311 -84.5325 169° South 469 540 33,000  Level Atlanta Center
Mon 07:33:10 PM 33.9039 -84.5019 169° South 469 540 33,000  Level Atlanta Center
Mon 07:34:10 PM 33.7789 -84.4836 173° South 463 533 33,000  Level Atlanta Center
Mon 07:35:10 PM 33.6517 -84.4806 179° South 463 533 33,000  Level Atlanta Center
Mon 07:36:10 PM 33.5242 -84.4822 181° South 455 524 33,000  Level Atlanta Center
Mon 07:37:10 PM 33.4031 -84.4767 178° South 444 511 33,000  Level Atlanta Center
Mon 07:38:10 PM 33.2758 -84.4661 176° South 449 517 33,000  Level Atlanta Center
Mon 07:39:10 PM 33.1528 -84.4631 179° South 449 517 33,000  Level Atlanta Center
Mon 07:40:10 PM 33.0211 -84.4650 181° South 438 504 33,000  Level Atlanta Center
Mon 07:41:10 PM 32.9003 -84.4594 178° South 438 504 33,000  Level Atlanta Center
Mon 07:42:10 PM 32.7811 -84.4514 177° South 433 498 33,000  Level Atlanta Center
Mon 07:43:10 PM 32.6603 -84.4458 178° South 438 504 33,000  Level Atlanta Center
Mon 07:44:10 PM 32.5411 -84.4406 178° South 438 504 33,000  Level Atlanta Center
Mon 07:45:10 PM 32.4203 -84.4375 179° South 438 504 33,000  Level Atlanta Center
Mon 07:46:10 PM 32.3033 -84.4344 179° South 433 498 33,000  Level Atlanta Center
Mon 07:48:01 PM 32.0947 -84.4253 178° South 437 503 33,000  Level Jacksonville Center
Mon 07:49:01 PM 31.9797 -84.4208 178° South 437 503 33,000  Level Jacksonville Center
Mon 07:50:01 PM 31.8608 -84.4164 178° South 432 497 33,000  Level Jacksonville Center
Mon 07:51:01 PM 31.7461 -84.4169 180° South 422 486 33,000  Level Jacksonville Center
Mon 07:52:01 PM 31.6292 -84.4103 177° South 417 480 33,000  Level Jacksonville Center
Mon 07:53:01 PM 31.5144 -84.4058 178° South 422 486 33,000  Level Jacksonville Center
Mon 07:54:01 PM 31.3975 -84.4042 179° South 422 486 33,000  Level Jacksonville Center
Mon 07:55:01 PM 31.2886 -84.4289 191° South 417 480 33,000  Level Jacksonville Center
Mon 07:56:01 PM 31.1797 -84.4636 195° South 411 473 33,000  Level Jacksonville Center
Mon 07:57:01 PM 31.0728 -84.5008 197° South 405 466 33,000  Level Jacksonville Center
Mon 07:58:01 PM 30.9617 -84.5328 194° South 405 466 33,000  Level Jacksonville Center
Mon 07:59:01 PM 30.8431 -84.5042 168° South 405 466 33,000  Level Jacksonville Center
Mon 08:00:01 PM 30.7289 -84.4514 158° South 413 475 33,000  Level Jacksonville Center
Mon 08:01:01 PM 30.6147 -84.3939 157° South 427 491 33,000  Level Jacksonville Center
Mon 08:02:01 PM 30.4986 -84.3342 156° South 441 507 33,000  Level Jacksonville Center
Mon 08:03:01 PM 30.3844 -84.2653 152° Southeast 452 520 33,000  Level Jacksonville Center
Mon 08:04:01 PM 30.2767 -84.1914 149° Southeast 457 526 33,000 -400 Level Jacksonville Center
Mon 08:05:01 PM 30.1583 -84.1131 150° Southeast 451 519 32,200 -1,000 Descending Jacksonville Center
Mon 08:06:01 PM 30.0442 -84.0419 152° Southeast 457 526 31,000 -1,050 Descending Jacksonville Center
Mon 08:07:01 PM 29.9364 -83.9711 150° Southeast 457 526 30,100 -950 Descending Jacksonville Center
Mon 08:08:01 PM 29.8367 -83.9053 150° Southeast 457 526 29,100 -950 Descending Jacksonville Center
Mon 08:09:01 PM 29.7264 -83.8350 151° Southeast 457 526 28,200 -900 Descending Jacksonville Center
Mon 08:10:01 PM 29.6164 -83.7644 151° Southeast 457 526 27,300 -600 Descending Jacksonville Center
Mon 08:11:01 PM 29.5083 -83.6944 151° Southeast 457 526 27,000 -150 Descending Jacksonville Center
Mon 08:12:01 PM 29.4000 -83.6244 151° Southeast 457 526 27,000 -450 Level Jacksonville Center
Mon 08:13:01 PM 29.2919 -83.5569 151° Southeast 452 520 26,100 -850 Descending Jacksonville Center
Mon 08:14:01 PM 29.1878 -83.4872 150° Southeast 447 514 25,300 -900 Descending Jacksonville Center
Mon 08:15:01 PM 29.0817 -83.4225 152° Southeast 435 501 24,300 -650 Descending Jacksonville Center
Mon 08:16:01 PM 28.9817 -83.3578 150° Southeast 429 494 24,000 -150 Descending Jacksonville Center
Mon 08:17:01 PM 28.8797 -83.2956 152° Southeast 429 494 24,000 -800 Level Jacksonville Center
Mon 08:18:01 PM 28.7778 -83.2267 149° Southeast 422 486 22,400 -2,500 Descending Jacksonville Center
Mon 08:19:01 PM 28.6733 -83.1669 153° Southeast 422 486 19,000 -3,505 Descending Jacksonville Center
Mon 08:19:42 PM 28.6000 -83.1167 149° Southeast 409 471 16,500 -2,336 Descending Tampa TRACON
Mon 08:21:12 PM 28.4500 -83.0167 150° Southeast 384 442 13,900 -1,480 Descending Tampa TRACON
Mon 08:22:12 PM 28.3667 -82.9667 152° Southeast 318 366 12,800 -1,316 Descending Tampa TRACON
Mon 08:23:06 PM 28.3000 -82.9333 156° South 316 364 11,400 -1,565 Descending Tampa TRACON
Mon 08:24:07 PM 28.2333 -82.8833 147° Southeast 313 360 9,800 -1,537 Descending Tampa TRACON
Mon 08:25:07 PM 28.1667 -82.8000 132° Southeast 306 352 8,300 -1,450 Descending Tampa TRACON
Mon 08:26:07 PM 28.1167 -82.7500 139° Southeast 258 297 6,900 -1,500 Descending Tampa TRACON
Mon 08:27:19 PM 28.0667 -82.7500 180° South 179 206 5,000 -1,286 Descending Tampa TRACON
Mon 08:28:13 PM 28.0833 -82.7833 300° West 166 191 4,200 -1,053 Descending Tampa TRACON
Mon 08:29:13 PM 28.1167 -82.7500 41° Northeast 196 226 3,000 -1,105 Descending Tampa TRACON
Mon 08:30:07 PM 28.0833 -82.7167 139° Southeast 180 207 2,100 -737 Descending Tampa TRACON
Mon 08:31:07 PM 28.0333 -82.7167 180° South 170 196 1,600 -350 Descending Tampa TRACON
Mon 08:32:07 PM 28.0000 -82.7000 156° South 152 175 1,400 -450 Descending Tampa TRACON
Mon 08:33:07 PM 27.9500 -82.7000 180° South 128 147 700 -700 Descending Tampa TRACON

Login

Don't have an account? Register now (free) for customized features, flight alerts, and more!